sensor_id;sensor_type;location;lat;lon;timestamp;temperature;humidity
17236;DHT22;8734;59.272;17.780;2023-01-29T00:00:04;1.10;99.90
17236;DHT22;8734;59.272;17.780;2023-01-29T00:02:36;1.10;99.90
17236;DHT22;8734;59.272;17.780;2023-01-29T00:05:06;1.10;99.90
17236;DHT22;8734;59.272;17.780;2023-01-29T00:07:55;1.10;99.90
17236;DHT22;8734;59.272;17.780;2023-01-29T00:10:25;1.10;99.90
17236;DHT22;8734;59.272;17.780;2023-01-29T00:12:54;1.10;99.90
17236;DHT22;8734;59.272;17.780;2023-01-29T00:15:22;1.10;99.90
17236;DHT22;8734;59.272;17.780;2023-01-29T00:17:50;1.20;99.90
17236;DHT22;8734;59.272;17.780;2023-01-29T00:20:19;1.20;99.90
17236;DHT22;8734;59.272;17.780;2023-01-29T00:22:48;1.20;99.90
17236;DHT22;8734;59.272;17.780;2023-01-29T00:25:16;1.20;99.90
17236;DHT22;8734;59.272;17.780;2023-01-29T00:27:46;1.20;99.90
17236;DHT22;8734;59.272;17.780;2023-01-29T00:30:14;1.20;99.90
17236;DHT22;8734;59.272;17.780;2023-01-29T00:32:46;1.30;99.90
17236;DHT22;8734;59.272;17.780;2023-01-29T00:35:14;1.30;99.90
17236;DHT22;8734;59.272;17.780;2023-01-29T00:37:43;1.30;99.90
17236;DHT22;8734;59.272;17.780;2023-01-29T00:40:12;1.30;99.90
17236;DHT22;8734;59.272;17.780;2023-01-29T00:42:43;1.20;99.90
17236;DHT22;8734;59.272;17.780;2023-01-29T00:45:31;1.30;99.90
17236;DHT22;8734;59.272;17.780;2023-01-29T00:48:00;1.20;99.90
17236;DHT22;8734;59.272;17.780;2023-01-29T00:50:28;1.20;99.90
17236;DHT22;8734;59.272;17.780;2023-01-29T00:52:56;1.20;99.90
17236;DHT22;8734;59.272;17.780;2023-01-29T00:55:25;1.30;99.90
17236;DHT22;8734;59.272;17.780;2023-01-29T00:57:53;1.30;99.90
17236;DHT22;8734;59.272;17.780;2023-01-29T01:00:22;1.30;99.90
17236;DHT22;8734;59.272;17.780;2023-01-29T01:02:52;1.30;99.90
17236;DHT22;8734;59.272;17.780;2023-01-29T01:05:32;1.40;99.90
17236;DHT22;8734;59.272;17.780;2023-01-29T01:08:00;1.40;99.90
17236;DHT22;8734;59.272;17.780;2023-01-29T01:10:31;1.30;99.90
17236;DHT22;8734;59.272;17.780;2023-01-29T01:13:00;1.40;99.90
17236;DHT22;8734;59.272;17.780;2023-01-29T01:15:31;1.40;99.90
17236;DHT22;8734;59.272;17.780;2023-01-29T01:18:02;1.40;99.90
17236;DHT22;8734;59.272;17.780;2023-01-29T01:20:33;1.40;99.90
17236;DHT22;8734;59.272;17.780;2023-01-29T01:23:02;1.40;99.90
17236;DHT22;8734;59.272;17.780;2023-01-29T01:25:31;1.30;99.90
17236;DHT22;8734;59.272;17.780;2023-01-29T01:27:59;1.30;99.90
17236;DHT22;8734;59.272;17.780;2023-01-29T01:30:28;1.30;99.90
17236;DHT22;8734;59.272;17.780;2023-01-29T01:32:56;1.20;99.90
17236;DHT22;8734;59.272;17.780;2023-01-29T01:35:26;1.10;99.90
17236;DHT22;8734;59.272;17.780;2023-01-29T01:37:54;1.00;99.90
17236;DHT22;8734;59.272;17.780;2023-01-29T01:40:24;0.90;99.90
17236;DHT22;8734;59.272;17.780;2023-01-29T01:42:55;0.80;99.90
17236;DHT22;8734;59.272;17.780;2023-01-29T01:45:26;0.70;99.90
17236;DHT22;8734;59.272;17.780;2023-01-29T01:47:58;0.60;99.90
17236;DHT22;8734;59.272;17.780;2023-01-29T01:50:33;0.50;99.90
17236;DHT22;8734;59.272;17.780;2023-01-29T01:53:05;0.40;99.90
17236;DHT22;8734;59.272;17.780;2023-01-29T01:55:36;0.40;99.90
17236;DHT22;8734;59.272;17.780;2023-01-29T01:58:08;0.40;99.90
17236;DHT22;8734;59.272;17.780;2023-01-29T02:00:38;0.50;99.90
17236;DHT22;8734;59.272;17.780;2023-01-29T02:03:08;0.50;99.90
17236;DHT22;8734;59.272;17.780;2023-01-29T02:05:57;0.40;99.90
17236;DHT22;8734;59.272;17.780;2023-01-29T02:08:50;0.40;99.90
17236;DHT22;8734;59.272;17.780;2023-01-29T02:11:37;0.50;99.90
17236;DHT22;8734;59.272;17.780;2023-01-29T02:14:07;0.60;99.90
17236;DHT22;8734;59.272;17.780;2023-01-29T02:16:36;0.60;99.90
17236;DHT22;8734;59.272;17.780;2023-01-29T02:19:09;0.50;99.90
17236;DHT22;8734;59.272;17.780;2023-01-29T02:25:22;0.60;99.90
17236;DHT22;8734;59.272;17.780;2023-01-29T02:28:06;0.70;99.90
17236;DHT22;8734;59.272;17.780;2023-01-29T02:30:43;0.80;99.90
17236;DHT22;8734;59.272;17.780;2023-01-29T02:33:20;0.80;99.90
17236;DHT22;8734;59.272;17.780;2023-01-29T02:35:58;0.80;99.90
17236;DHT22;8734;59.272;17.780;2023-01-29T02:38:37;0.80;99.90
17236;DHT22;8734;59.272;17.780;2023-01-29T02:41:13;0.70;99.90
17236;DHT22;8734;59.272;17.780;2023-01-29T02:43:46;0.70;99.90
17236;DHT22;8734;59.272;17.780;2023-01-29T02:46:20;0.70;99.90
17236;DHT22;8734;59.272;17.780;2023-01-29T02:48:55;0.70;99.90
17236;DHT22;8734;59.272;17.780;2023-01-29T02:51:29;0.60;99.90
17236;DHT22;8734;59.272;17.780;2023-01-29T02:54:02;0.60;99.90
17236;DHT22;8734;59.272;17.780;2023-01-29T02:56:35;0.60;99.90
17236;DHT22;8734;59.272;17.780;2023-01-29T02:59:07;0.50;99.90
17236;DHT22;8734;59.272;17.780;2023-01-29T03:01:44;0.50;99.90
17236;DHT22;8734;59.272;17.780;2023-01-29T03:04:17;0.50;99.90
17236;DHT22;8734;59.272;17.780;2023-01-29T03:06:50;0.50;99.90
17236;DHT22;8734;59.272;17.780;2023-01-29T03:09:24;0.50;99.90
17236;DHT22;8734;59.272;17.780;2023-01-29T03:11:56;0.50;99.90
17236;DHT22;8734;59.272;17.780;2023-01-29T03:14:32;0.40;99.90
17236;DHT22;8734;59.272;17.780;2023-01-29T03:17:34;0.30;99.90
17236;DHT22;8734;59.272;17.780;2023-01-29T03:20:07;0.20;99.90
17236;DHT22;8734;59.272;17.780;2023-01-29T03:22:39;0.10;99.90
17236;DHT22;8734;59.272;17.780;2023-01-29T03:25:08;0.00;99.90
17236;DHT22;8734;59.272;17.780;2023-01-29T03:27:57;0.00;99.90
17236;DHT22;8734;59.272;17.780;2023-01-29T03:30:47;0.10;99.90
17236;DHT22;8734;59.272;17.780;2023-01-29T03:33:41;0.10;99.90
17236;DHT22;8734;59.272;17.780;2023-01-29T03:36:15;0.10;99.90
17236;DHT22;8734;59.272;17.780;2023-01-29T03:38:45;0.10;99.90
17236;DHT22;8734;59.272;17.780;2023-01-29T03:41:19;0.30;99.90
17236;DHT22;8734;59.272;17.780;2023-01-29T03:43:54;0.30;99.90
17236;DHT22;8734;59.272;17.780;2023-01-29T03:46:29;0.30;99.90
17236;DHT22;8734;59.272;17.780;2023-01-29T03:49:01;0.30;99.90
17236;DHT22;8734;59.272;17.780;2023-01-29T03:51:36;0.30;99.90
17236;DHT22;8734;59.272;17.780;2023-01-29T03:54:11;0.40;99.90
17236;DHT22;8734;59.272;17.780;2023-01-29T03:56:52;0.50;99.90
17236;DHT22;8734;59.272;17.780;2023-01-29T03:59:31;0.50;99.90
17236;DHT22;8734;59.272;17.780;2023-01-29T04:02:05;0.60;99.90
17236;DHT22;8734;59.272;17.780;2023-01-29T04:04:37;0.60;99.90
17236;DHT22;8734;59.272;17.780;2023-01-29T04:07:09;0.70;99.90
17236;DHT22;8734;59.272;17.780;2023-01-29T04:09:42;0.70;99.90
17236;DHT22;8734;59.272;17.780;2023-01-29T04:12:14;0.70;99.90
17236;DHT22;8734;59.272;17.780;2023-01-29T04:14:46;0.70;99.90
17236;DHT22;8734;59.272;17.780;2023-01-29T04:17:20;0.80;99.90
17236;DHT22;8734;59.272;17.780;2023-01-29T04:19:49;0.80;99.90
17236;DHT22;8734;59.272;17.780;2023-01-29T04:22:20;0.80;99.90
17236;DHT22;8734;59.272;17.780;2023-01-29T04:24:50;0.80;99.90
17236;DHT22;8734;59.272;17.780;2023-01-29T04:27:25;0.90;99.90
17236;DHT22;8734;59.272;17.780;2023-01-29T04:30:05;0.90;99.90
17236;DHT22;8734;59.272;17.780;2023-01-29T04:32:47;0.80;99.90
17236;DHT22;8734;59.272;17.780;2023-01-29T04:35:30;0.90;99.90
17236;DHT22;8734;59.272;17.780;2023-01-29T04:38:06;0.90;99.90
17236;DHT22;8734;59.272;17.780;2023-01-29T04:40:45;0.80;99.90
17236;DHT22;8734;59.272;17.780;2023-01-29T04:43:22;0.80;99.90
17236;DHT22;8734;59.272;17.780;2023-01-29T04:46:05;0.70;99.90
17236;DHT22;8734;59.272;17.780;2023-01-29T04:48:48;0.70;99.90
17236;DHT22;8734;59.272;17.780;2023-01-29T04:51:24;0.80;99.90
17236;DHT22;8734;59.272;17.780;2023-01-29T04:54:03;0.80;99.90
17236;DHT22;8734;59.272;17.780;2023-01-29T04:56:37;0.80;99.90
17236;DHT22;8734;59.272;17.780;2023-01-29T04:59:10;0.80;99.90
17236;DHT22;8734;59.272;17.780;2023-01-29T05:01:41;0.80;99.90
17236;DHT22;8734;59.272;17.780;2023-01-29T05:04:14;0.80;99.90
17236;DHT22;8734;59.272;17.780;2023-01-29T05:06:44;0.80;99.90
17236;DHT22;8734;59.272;17.780;2023-01-29T05:09:14;0.80;99.90
17236;DHT22;8734;59.272;17.780;2023-01-29T05:11:45;0.80;99.90
17236;DHT22;8734;59.272;17.780;2023-01-29T05:14:17;0.90;99.90
17236;DHT22;8734;59.272;17.780;2023-01-29T05:16:50;0.90;99.90
17236;DHT22;8734;59.272;17.780;2023-01-29T05:19:20;0.90;99.90
17236;DHT22;8734;59.272;17.780;2023-01-29T05:21:49;0.90;99.90
17236;DHT22;8734;59.272;17.780;2023-01-29T05:24:19;0.90;99.90
17236;DHT22;8734;59.272;17.780;2023-01-29T05:26:49;0.90;99.90
17236;DHT22;8734;59.272;17.780;2023-01-29T05:29:35;0.90;99.90
17236;DHT22;8734;59.272;17.780;2023-01-29T05:32:04;0.90;99.90
17236;DHT22;8734;59.272;17.780;2023-01-29T05:34:34;0.90;99.90
17236;DHT22;8734;59.272;17.780;2023-01-29T05:37:02;0.90;99.90
17236;DHT22;8734;59.272;17.780;2023-01-29T05:39:31;0.80;99.90
17236;DHT22;8734;59.272;17.780;2023-01-29T05:42:00;0.80;99.90
17236;DHT22;8734;59.272;17.780;2023-01-29T05:44:29;0.70;99.90
17236;DHT22;8734;59.272;17.780;2023-01-29T05:46:57;0.80;99.90
17236;DHT22;8734;59.272;17.780;2023-01-29T05:49:28;0.80;99.90
17236;DHT22;8734;59.272;17.780;2023-01-29T05:51:58;0.80;99.90
17236;DHT22;8734;59.272;17.780;2023-01-29T05:54:26;0.80;99.90
17236;DHT22;8734;59.272;17.780;2023-01-29T05:56:55;0.80;99.90
17236;DHT22;8734;59.272;17.780;2023-01-29T05:59:23;0.80;99.90
17236;DHT22;8734;59.272;17.780;2023-01-29T06:01:51;0.70;99.90
17236;DHT22;8734;59.272;17.780;2023-01-29T06:04:20;0.70;99.90
17236;DHT22;8734;59.272;17.780;2023-01-29T06:06:48;0.80;99.90
17236;DHT22;8734;59.272;17.780;2023-01-29T06:09:18;0.80;99.90
17236;DHT22;8734;59.272;17.780;2023-01-29T06:11:46;0.80;99.90
17236;DHT22;8734;59.272;17.780;2023-01-29T06:14:15;0.90;99.90
17236;DHT22;8734;59.272;17.780;2023-01-29T06:16:43;0.90;99.90
17236;DHT22;8734;59.272;17.780;2023-01-29T06:19:11;0.90;99.90
17236;DHT22;8734;59.272;17.780;2023-01-29T06:21:40;0.90;99.90
17236;DHT22;8734;59.272;17.780;2023-01-29T06:24:08;0.90;99.90
17236;DHT22;8734;59.272;17.780;2023-01-29T06:26:38;0.90;99.90
17236;DHT22;8734;59.272;17.780;2023-01-29T06:29:07;0.80;99.90
17236;DHT22;8734;59.272;17.780;2023-01-29T06:31:35;0.80;99.90
17236;DHT22;8734;59.272;17.780;2023-01-29T06:34:05;0.80;99.90
17236;DHT22;8734;59.272;17.780;2023-01-29T06:36:34;0.90;99.90
17236;DHT22;8734;59.272;17.780;2023-01-29T06:39:03;0.90;99.90
17236;DHT22;8734;59.272;17.780;2023-01-29T06:41:31;0.90;99.90
17236;DHT22;8734;59.272;17.780;2023-01-29T06:44:01;1.00;99.90
17236;DHT22;8734;59.272;17.780;2023-01-29T06:46:30;1.00;99.90
17236;DHT22;8734;59.272;17.780;2023-01-29T06:48:58;1.00;99.90
17236;DHT22;8734;59.272;17.780;2023-01-29T06:51:27;1.00;99.90
17236;DHT22;8734;59.272;17.780;2023-01-29T06:53:55;0.90;99.90
17236;DHT22;8734;59.272;17.780;2023-01-29T06:56:24;0.90;99.90
17236;DHT22;8734;59.272;17.780;2023-01-29T06:58:52;1.00;99.90
17236;DHT22;8734;59.272;17.780;2023-01-29T07:01:22;1.00;99.90
17236;DHT22;8734;59.272;17.780;2023-01-29T07:04:02;1.00;99.90
17236;DHT22;8734;59.272;17.780;2023-01-29T07:06:31;1.00;99.90
17236;DHT22;8734;59.272;17.780;2023-01-29T07:08:59;1.00;99.90
17236;DHT22;8734;59.272;17.780;2023-01-29T07:11:28;1.00;99.90
17236;DHT22;8734;59.272;17.780;2023-01-29T07:13:56;1.00;99.90
17236;DHT22;8734;59.272;17.780;2023-01-29T07:16:26;1.00;99.90
17236;DHT22;8734;59.272;17.780;2023-01-29T07:18:54;1.10;99.90
17236;DHT22;8734;59.272;17.780;2023-01-29T07:21:23;1.10;99.90
17236;DHT22;8734;59.272;17.780;2023-01-29T07:23:51;1.10;99.90
17236;DHT22;8734;59.272;17.780;2023-01-29T07:26:19;1.20;99.90
17236;DHT22;8734;59.272;17.780;2023-01-29T07:28:48;1.20;99.90
17236;DHT22;8734;59.272;17.780;2023-01-29T07:31:16;1.10;99.90
17236;DHT22;8734;59.272;17.780;2023-01-29T07:33:46;1.20;99.90
17236;DHT22;8734;59.272;17.780;2023-01-29T07:36:15;1.20;99.90
17236;DHT22;8734;59.272;17.780;2023-01-29T07:38:43;1.20;99.90
17236;DHT22;8734;59.272;17.780;2023-01-29T07:41:16;1.30;99.90
17236;DHT22;8734;59.272;17.780;2023-01-29T07:43:44;1.30;99.90
17236;DHT22;8734;59.272;17.780;2023-01-29T07:46:12;1.30;99.90
17236;DHT22;8734;59.272;17.780;2023-01-29T07:48:41;1.30;99.90
17236;DHT22;8734;59.272;17.780;2023-01-29T07:51:11;1.30;99.90
17236;DHT22;8734;59.272;17.780;2023-01-29T07:53:39;1.30;99.90
17236;DHT22;8734;59.272;17.780;2023-01-29T07:56:07;1.40;99.90
17236;DHT22;8734;59.272;17.780;2023-01-29T07:58:36;1.30;99.90
17236;DHT22;8734;59.272;17.780;2023-01-29T08:01:05;1.40;99.90
17236;DHT22;8734;59.272;17.780;2023-01-29T08:03:34;1.40;99.90
17236;DHT22;8734;59.272;17.780;2023-01-29T08:06:03;1.50;99.90
17236;DHT22;8734;59.272;17.780;2023-01-29T08:08:32;1.50;99.90
17236;DHT22;8734;59.272;17.780;2023-01-29T08:11:01;1.50;99.90
17236;DHT22;8734;59.272;17.780;2023-01-29T08:13:31;1.50;99.90
17236;DHT22;8734;59.272;17.780;2023-01-29T08:16:00;1.60;99.90
17236;DHT22;8734;59.272;17.780;2023-01-29T08:18:28;1.60;99.90
17236;DHT22;8734;59.272;17.780;2023-01-29T08:20:59;1.60;99.90
17236;DHT22;8734;59.272;17.780;2023-01-29T08:23:27;1.70;99.90
17236;DHT22;8734;59.272;17.780;2023-01-29T08:25:58;1.80;99.90
17236;DHT22;8734;59.272;17.780;2023-01-29T08:28:26;1.80;99.90
17236;DHT22;8734;59.272;17.780;2023-01-29T08:30:54;1.80;99.90
17236;DHT22;8734;59.272;17.780;2023-01-29T08:33:23;1.70;99.90
17236;DHT22;8734;59.272;17.780;2023-01-29T08:36:05;1.80;99.90
17236;DHT22;8734;59.272;17.780;2023-01-29T08:38:34;1.80;99.90
17236;DHT22;8734;59.272;17.780;2023-01-29T08:41:04;1.80;99.90
17236;DHT22;8734;59.272;17.780;2023-01-29T08:43:33;1.90;99.90
17236;DHT22;8734;59.272;17.780;2023-01-29T08:46:03;1.80;99.90
17236;DHT22;8734;59.272;17.780;2023-01-29T08:48:31;1.80;99.90
17236;DHT22;8734;59.272;17.780;2023-01-29T08:51:01;1.90;99.90
17236;DHT22;8734;59.272;17.780;2023-01-29T08:53:30;1.90;99.90
17236;DHT22;8734;59.272;17.780;2023-01-29T08:55:59;1.90;99.90
17236;DHT22;8734;59.272;17.780;2023-01-29T08:58:28;1.90;99.90
17236;DHT22;8734;59.272;17.780;2023-01-29T09:01:04;2.00;99.90
17236;DHT22;8734;59.272;17.780;2023-01-29T09:03:32;2.00;99.90
17236;DHT22;8734;59.272;17.780;2023-01-29T09:06:01;2.00;99.90
17236;DHT22;8734;59.272;17.780;2023-01-29T09:08:29;2.10;99.90
17236;DHT22;8734;59.272;17.780;2023-01-29T09:10:58;2.00;99.90
17236;DHT22;8734;59.272;17.780;2023-01-29T09:13:28;2.10;99.90
17236;DHT22;8734;59.272;17.780;2023-01-29T09:15:58;2.10;99.90
17236;DHT22;8734;59.272;17.780;2023-01-29T09:18:28;2.10;99.90
17236;DHT22;8734;59.272;17.780;2023-01-29T09:20:57;2.10;99.90
17236;DHT22;8734;59.272;17.780;2023-01-29T09:23:25;2.10;99.90
17236;DHT22;8734;59.272;17.780;2023-01-29T09:25:53;2.20;99.90
17236;DHT22;8734;59.272;17.780;2023-01-29T09:28:22;2.20;99.90
17236;DHT22;8734;59.272;17.780;2023-01-29T09:30:51;2.20;99.90
17236;DHT22;8734;59.272;17.780;2023-01-29T09:33:20;2.30;99.90
17236;DHT22;8734;59.272;17.780;2023-01-29T09:35:50;2.30;99.90
17236;DHT22;8734;59.272;17.780;2023-01-29T09:38:18;2.30;99.90
17236;DHT22;8734;59.272;17.780;2023-01-29T09:40:53;2.40;99.90
17236;DHT22;8734;59.272;17.780;2023-01-29T09:43:37;2.40;99.90
17236;DHT22;8734;59.272;17.780;2023-01-29T09:46:14;2.40;99.90
17236;DHT22;8734;59.272;17.780;2023-01-29T09:48:45;2.40;99.90
17236;DHT22;8734;59.272;17.780;2023-01-29T09:51:23;2.40;99.90
17236;DHT22;8734;59.272;17.780;2023-01-29T09:53:57;2.40;99.90
17236;DHT22;8734;59.272;17.780;2023-01-29T09:56:31;2.40;99.90
17236;DHT22;8734;59.272;17.780;2023-01-29T09:58:59;2.50;99.90
17236;DHT22;8734;59.272;17.780;2023-01-29T10:01:32;2.50;99.90
17236;DHT22;8734;59.272;17.780;2023-01-29T10:04:32;2.50;99.90
17236;DHT22;8734;59.272;17.780;2023-01-29T10:07:18;2.50;99.90
17236;DHT22;8734;59.272;17.780;2023-01-29T10:10:24;2.60;99.90
17236;DHT22;8734;59.272;17.780;2023-01-29T10:13:02;2.80;99.90
17236;DHT22;8734;59.272;17.780;2023-01-29T10:15:41;2.80;99.90
17236;DHT22;8734;59.272;17.780;2023-01-29T10:18:47;2.90;99.90
17236;DHT22;8734;59.272;17.780;2023-01-29T10:21:33;3.10;99.90
17236;DHT22;8734;59.272;17.780;2023-01-29T10:24:14;3.30;99.90
17236;DHT22;8734;59.272;17.780;2023-01-29T10:26:44;3.50;99.90
17236;DHT22;8734;59.272;17.780;2023-01-29T10:29:17;3.80;99.90
17236;DHT22;8734;59.272;17.780;2023-01-29T10:31:52;3.90;99.90
17236;DHT22;8734;59.272;17.780;2023-01-29T10:34:28;4.10;99.90
17236;DHT22;8734;59.272;17.780;2023-01-29T10:37:00;4.10;99.90
17236;DHT22;8734;59.272;17.780;2023-01-29T10:39:38;4.20;99.90
17236;DHT22;8734;59.272;17.780;2023-01-29T10:42:23;4.30;99.90
17236;DHT22;8734;59.272;17.780;2023-01-29T10:45:05;4.40;99.90
17236;DHT22;8734;59.272;17.780;2023-01-29T10:48:00;4.50;99.90
17236;DHT22;8734;59.272;17.780;2023-01-29T10:50:42;4.60;99.90
17236;DHT22;8734;59.272;17.780;2023-01-29T10:53:32;4.30;99.90
17236;DHT22;8734;59.272;17.780;2023-01-29T10:56:16;4.20;99.90
17236;DHT22;8734;59.272;17.780;2023-01-29T10:58:52;4.10;99.90
17236;DHT22;8734;59.272;17.780;2023-01-29T11:01:21;4.00;99.90
17236;DHT22;8734;59.272;17.780;2023-01-29T11:03:56;3.80;99.90
17236;DHT22;8734;59.272;17.780;2023-01-29T11:06:30;3.80;99.90
17236;DHT22;8734;59.272;17.780;2023-01-29T11:09:07;3.80;99.90
17236;DHT22;8734;59.272;17.780;2023-01-29T11:11:41;3.80;99.90
17236;DHT22;8734;59.272;17.780;2023-01-29T11:14:13;3.80;99.90
17236;DHT22;8734;59.272;17.780;2023-01-29T11:16:44;3.70;99.90
17236;DHT22;8734;59.272;17.780;2023-01-29T11:19:14;3.70;99.90
17236;DHT22;8734;59.272;17.780;2023-01-29T11:21:54;3.70;99.90
17236;DHT22;8734;59.272;17.780;2023-01-29T11:24:23;3.80;99.90
17236;DHT22;8734;59.272;17.780;2023-01-29T11:26:54;3.90;99.90
17236;DHT22;8734;59.272;17.780;2023-01-29T11:29:37;3.90;99.90
17236;DHT22;8734;59.272;17.780;2023-01-29T11:32:10;3.90;99.90
17236;DHT22;8734;59.272;17.780;2023-01-29T11:34:59;4.00;99.90
17236;DHT22;8734;59.272;17.780;2023-01-29T11:37:35;4.10;99.90
17236;DHT22;8734;59.272;17.780;2023-01-29T11:40:33;4.10;99.90
17236;DHT22;8734;59.272;17.780;2023-01-29T11:43:22;4.10;99.90
17236;DHT22;8734;59.272;17.780;2023-01-29T11:45:52;4.10;99.90
17236;DHT22;8734;59.272;17.780;2023-01-29T11:48:25;4.20;99.90
17236;DHT22;8734;59.272;17.780;2023-01-29T11:50:56;4.20;99.90
17236;DHT22;8734;59.272;17.780;2023-01-29T11:53:34;4.10;99.90
17236;DHT22;8734;59.272;17.780;2023-01-29T11:56:12;4.10;99.90
17236;DHT22;8734;59.272;17.780;2023-01-29T11:58:43;4.10;99.90
17236;DHT22;8734;59.272;17.780;2023-01-29T12:01:13;4.10;99.90
17236;DHT22;8734;59.272;17.780;2023-01-29T12:03:45;4.00;99.90
17236;DHT22;8734;59.272;17.780;2023-01-29T12:06:20;4.10;99.90
17236;DHT22;8734;59.272;17.780;2023-01-29T12:08:56;4.10;99.90
17236;DHT22;8734;59.272;17.780;2023-01-29T12:11:27;4.00;99.90
17236;DHT22;8734;59.272;17.780;2023-01-29T12:13:58;4.00;99.90
17236;DHT22;8734;59.272;17.780;2023-01-29T12:16:30;4.00;99.90
17236;DHT22;8734;59.272;17.780;2023-01-29T12:19:06;4.00;99.90
17236;DHT22;8734;59.272;17.780;2023-01-29T12:21:44;3.90;99.90
17236;DHT22;8734;59.272;17.780;2023-01-29T12:24:30;3.90;99.90
17236;DHT22;8734;59.272;17.780;2023-01-29T12:27:06;3.90;99.90
17236;DHT22;8734;59.272;17.780;2023-01-29T12:29:41;3.90;99.90
17236;DHT22;8734;59.272;17.780;2023-01-29T12:32:18;4.00;99.90
17236;DHT22;8734;59.272;17.780;2023-01-29T12:34:52;3.90;99.90
17236;DHT22;8734;59.272;17.780;2023-01-29T12:37:26;3.90;99.90
17236;DHT22;8734;59.272;17.780;2023-01-29T12:40:00;3.90;99.90
17236;DHT22;8734;59.272;17.780;2023-01-29T12:42:29;3.90;99.90
17236;DHT22;8734;59.272;17.780;2023-01-29T12:45:00;3.90;99.90
17236;DHT22;8734;59.272;17.780;2023-01-29T12:47:33;4.00;99.90
17236;DHT22;8734;59.272;17.780;2023-01-29T12:50:06;4.00;99.90
17236;DHT22;8734;59.272;17.780;2023-01-29T12:52:39;4.00;99.90
17236;DHT22;8734;59.272;17.780;2023-01-29T12:55:16;4.10;99.90
17236;DHT22;8734;59.272;17.780;2023-01-29T12:57:49;4.20;99.90
17236;DHT22;8734;59.272;17.780;2023-01-29T13:00:23;4.20;99.90
17236;DHT22;8734;59.272;17.780;2023-01-29T13:02:56;4.10;99.90
17236;DHT22;8734;59.272;17.780;2023-01-29T13:05:28;4.20;99.90
17236;DHT22;8734;59.272;17.780;2023-01-29T13:08:02;4.10;99.90
17236;DHT22;8734;59.272;17.780;2023-01-29T13:10:36;4.20;99.90
17236;DHT22;8734;59.272;17.780;2023-01-29T13:13:12;4.20;99.90
17236;DHT22;8734;59.272;17.780;2023-01-29T13:15:42;4.20;99.90
17236;DHT22;8734;59.272;17.780;2023-01-29T13:18:31;4.20;99.90
17236;DHT22;8734;59.272;17.780;2023-01-29T13:21:03;4.20;99.90
17236;DHT22;8734;59.272;17.780;2023-01-29T13:23:36;4.20;99.90
17236;DHT22;8734;59.272;17.780;2023-01-29T13:26:06;4.30;99.90
17236;DHT22;8734;59.272;17.780;2023-01-29T13:28:35;4.30;99.90
17236;DHT22;8734;59.272;17.780;2023-01-29T13:31:27;4.30;99.90
17236;DHT22;8734;59.272;17.780;2023-01-29T13:34:08;4.30;99.90
17236;DHT22;8734;59.272;17.780;2023-01-29T13:36:41;4.40;99.90
17236;DHT22;8734;59.272;17.780;2023-01-29T13:39:19;4.40;99.90
17236;DHT22;8734;59.272;17.780;2023-01-29T13:41:51;4.40;99.90
17236;DHT22;8734;59.272;17.780;2023-01-29T13:44:23;4.30;99.90
17236;DHT22;8734;59.272;17.780;2023-01-29T13:46:55;4.30;99.90
17236;DHT22;8734;59.272;17.780;2023-01-29T13:49:29;4.30;99.90
17236;DHT22;8734;59.272;17.780;2023-01-29T13:52:15;4.30;99.90
17236;DHT22;8734;59.272;17.780;2023-01-29T13:54:53;4.40;99.90
17236;DHT22;8734;59.272;17.780;2023-01-29T14:00:56;4.40;99.90
17236;DHT22;8734;59.272;17.780;2023-01-29T14:03:52;4.40;99.90
17236;DHT22;8734;59.272;17.780;2023-01-29T14:06:45;4.50;99.90
17236;DHT22;8734;59.272;17.780;2023-01-29T14:12:45;4.50;99.90
17236;DHT22;8734;59.272;17.780;2023-01-29T14:15:32;4.50;99.90
17236;DHT22;8734;59.272;17.780;2023-01-29T14:18:18;4.50;99.90
17236;DHT22;8734;59.272;17.780;2023-01-29T14:20:56;4.50;99.90
17236;DHT22;8734;59.272;17.780;2023-01-29T14:23:39;4.50;99.90
17236;DHT22;8734;59.272;17.780;2023-01-29T14:26:23;4.50;99.90
17236;DHT22;8734;59.272;17.780;2023-01-29T14:28:58;4.50;99.90
17236;DHT22;8734;59.272;17.780;2023-01-29T14:31:29;4.50;99.90
17236;DHT22;8734;59.272;17.780;2023-01-29T14:34:03;4.50;99.90
17236;DHT22;8734;59.272;17.780;2023-01-29T14:36:38;4.40;99.90
17236;DHT22;8734;59.272;17.780;2023-01-29T14:39:22;4.50;99.90
17236;DHT22;8734;59.272;17.780;2023-01-29T14:41:52;4.50;99.90
17236;DHT22;8734;59.272;17.780;2023-01-29T14:47:57;4.50;99.90
17236;DHT22;8734;59.272;17.780;2023-01-29T14:50:47;4.50;99.90
17236;DHT22;8734;59.272;17.780;2023-01-29T14:53:21;4.60;99.90
17236;DHT22;8734;59.272;17.780;2023-01-29T14:55:54;4.60;99.90
17236;DHT22;8734;59.272;17.780;2023-01-29T14:58:32;4.60;99.90
17236;DHT22;8734;59.272;17.780;2023-01-29T15:01:05;4.60;99.90
17236;DHT22;8734;59.272;17.780;2023-01-29T15:03:40;4.60;99.90
17236;DHT22;8734;59.272;17.780;2023-01-29T15:06:15;4.70;99.90
17236;DHT22;8734;59.272;17.780;2023-01-29T15:08:48;4.60;99.90
17236;DHT22;8734;59.272;17.780;2023-01-29T15:11:33;4.70;99.90
17236;DHT22;8734;59.272;17.780;2023-01-29T15:14:17;4.70;99.90
17236;DHT22;8734;59.272;17.780;2023-01-29T15:16:56;4.70;99.90
17236;DHT22;8734;59.272;17.780;2023-01-29T15:19:33;4.60;99.90
17236;DHT22;8734;59.272;17.780;2023-01-29T15:22:04;4.70;99.90
17236;DHT22;8734;59.272;17.780;2023-01-29T15:24:33;4.70;99.90
17236;DHT22;8734;59.272;17.780;2023-01-29T15:27:01;4.80;99.90
17236;DHT22;8734;59.272;17.780;2023-01-29T15:29:30;4.80;99.90
17236;DHT22;8734;59.272;17.780;2023-01-29T15:31:58;4.80;99.90
17236;DHT22;8734;59.272;17.780;2023-01-29T15:34:29;4.80;99.90
17236;DHT22;8734;59.272;17.780;2023-01-29T15:36:57;4.80;99.90
17236;DHT22;8734;59.272;17.780;2023-01-29T15:39:26;4.90;99.90
17236;DHT22;8734;59.272;17.780;2023-01-29T15:42:12;4.90;99.90
17236;DHT22;8734;59.272;17.780;2023-01-29T15:44:44;4.90;99.90
17236;DHT22;8734;59.272;17.780;2023-01-29T15:47:14;4.90;99.90
17236;DHT22;8734;59.272;17.780;2023-01-29T15:49:45;5.00;99.90
17236;DHT22;8734;59.272;17.780;2023-01-29T15:52:17;4.90;99.90
17236;DHT22;8734;59.272;17.780;2023-01-29T15:54:46;4.90;99.90
17236;DHT22;8734;59.272;17.780;2023-01-29T15:57:20;4.90;99.90
17236;DHT22;8734;59.272;17.780;2023-01-29T15:59:51;4.90;99.90
17236;DHT22;8734;59.272;17.780;2023-01-29T16:02:36;4.90;99.90
17236;DHT22;8734;59.272;17.780;2023-01-29T16:05:10;4.90;99.90
17236;DHT22;8734;59.272;17.780;2023-01-29T16:07:41;4.90;99.90
17236;DHT22;8734;59.272;17.780;2023-01-29T16:10:15;5.00;99.90
17236;DHT22;8734;59.272;17.780;2023-01-29T16:12:44;5.00;99.90
17236;DHT22;8734;59.272;17.780;2023-01-29T16:15:29;5.10;99.90
17236;DHT22;8734;59.272;17.780;2023-01-29T16:17:58;5.10;99.90
17236;DHT22;8734;59.272;17.780;2023-01-29T16:20:36;5.20;99.90
17236;DHT22;8734;59.272;17.780;2023-01-29T16:23:07;5.20;99.90
17236;DHT22;8734;59.272;17.780;2023-01-29T16:25:42;5.20;99.90
17236;DHT22;8734;59.272;17.780;2023-01-29T16:28:11;5.20;99.90
17236;DHT22;8734;59.272;17.780;2023-01-29T16:30:39;5.20;99.90
17236;DHT22;8734;59.272;17.780;2023-01-29T16:33:11;5.30;99.90
17236;DHT22;8734;59.272;17.780;2023-01-29T16:35:49;5.30;99.90
17236;DHT22;8734;59.272;17.780;2023-01-29T16:38:25;5.30;99.90